Time;durP1;ratioP1;P1;durP2;ratioP2;P2;SDS_P1;SDS_P2;PMS_P1;PMS_P2;Temp;Humidity;BMP_temperature;BMP_pressure;BME280_temperature;BME280_humidity;BME280_pressure;Samples;Min_cycle;Max_cycle;Signal;HPM_P1;HPM_P2
2023/10/04 00:00:39;;;;;;;8.10;1.17;;;;;;;;;;5097971;27;20145;-58
2023/10/04 00:03:05;;;;;;;13.32;1.17;;;;;;;;;;5097773;28;20059;-59
2023/10/04 00:05:31;;;;;;;4.75;0.90;;;;;;;;;;5098591;28;20043;-58
2023/10/04 00:07:59;;;;;;;10.88;1.13;;;;;;;;;;5095973;28;20054;-58
2023/10/04 00:10:25;;;;;;;5.00;1.17;;;;;;;;;;5094266;28;20111;-59
2023/10/04 00:12:51;;;;;;;9.35;1.00;;;;;;;;;;5089696;28;20055;-59
2023/10/04 00:15:21;;;;;;;8.32;1.25;;;;;;;;;;5093773;27;20040;-59
2023/10/04 00:17:47;;;;;;;7.47;1.08;;;;;;;;;;5087990;28;20036;-60
2023/10/04 00:20:16;;;;;;;4.97;1.15;;;;;;;;;;5091586;28;20051;-60
2023/10/04 00:22:43;;;;;;;7.97;0.90;;;;;;;;;;5084610;28;20481;-59
2023/10/04 00:25:11;;;;;;;17.55;1.65;;;;;;;;;;5090192;27;20047;-59
2023/10/04 00:27:41;;;;;;;7.82;1.02;;;;;;;;;;5093968;28;20489;-59
2023/10/04 00:30:17;;;;;;;8.77;1.20;;;;;;;;;;5086569;28;20092;-60
2023/10/04 00:32:44;;;;;;;8.18;1.25;;;;;;;;;;5083932;28;20055;-59
2023/10/04 00:35:19;;;;;;;7.95;1.00;;;;;;;;;;5086747;28;20104;-59
2023/10/04 00:37:56;;;;;;;9.35;1.20;;;;;;;;;;5102048;28;20463;-59
2023/10/04 00:40:32;;;;;;;9.10;1.08;;;;;;;;;;5100927;28;20051;-59
2023/10/04 00:43:02;;;;;;;10.32;1.88;;;;;;;;;;5101761;28;20653;-59
2023/10/04 00:45:32;;;;;;;5.03;0.98;;;;;;;;;;5100169;28;20047;-59
2023/10/04 00:47:58;;;;;;;6.60;0.95;;;;;;;;;;5102511;28;20392;-59
2023/10/04 00:50:26;;;;;;;8.98;1.02;;;;;;;;;;5101780;28;21169;-59
2023/10/04 00:52:57;;;;;;;8.85;1.23;;;;;;;;;;5098524;28;20036;-59
2023/10/04 00:55:23;;;;;;;12.57;1.73;;;;;;;;;;5098532;28;20044;-59
2023/10/04 00:57:54;;;;;;;8.27;1.05;;;;;;;;;;5094542;28;20044;-59
2023/10/04 01:00:20;;;;;;;6.53;1.08;;;;;;;;;;5078834;28;20047;-59
2023/10/04 01:02:46;;;;;;;11.70;1.40;;;;;;;;;;5094154;28;20098;-60
2023/10/04 01:05:15;;;;;;;8.85;1.77;;;;;;;;;;5153393;22;20051;-59
2023/10/04 01:07:41;;;;;;;8.45;1.20;;;;;;;;;;5067588;28;20056;-60
2023/10/04 01:10:14;;;;;;;8.23;1.20;;;;;;;;;;5075791;28;20039;-62
2023/10/04 01:12:41;;;;;;;8.27;1.63;;;;;;;;;;5066177;28;20044;-60
2023/10/04 01:15:55;;;;;;;8.48;1.20;;;;;;;;;;5066489;28;20486;-59
2023/10/04 01:17:53;;;;;;;5.43;1.27;;;;;;;;;;5068128;28;20044;-59
2023/10/04 01:20:22;;;;;;;11.95;1.30;;;;;;;;;;5081623;28;20052;-59
2023/10/04 01:22:50;;;;;;;6.85;1.17;;;;;;;;;;5074796;28;20774;-59
2023/10/04 01:25:16;;;;;;;7.03;1.45;;;;;;;;;;5078533;28;20046;-59
2023/10/04 01:27:44;;;;;;;8.93;1.08;;;;;;;;;;5061284;28;20135;-60
2023/10/04 01:30:10;;;;;;;11.52;1.58;;;;;;;;;;5079578;28;20056;-60
2023/10/04 01:32:37;;;;;;;9.20;1.00;;;;;;;;;;5077372;28;20378;-59
2023/10/04 01:35:05;;;;;;;5.85;1.17;;;;;;;;;;5080399;28;20036;-59
2023/10/04 01:37:32;;;;;;;9.98;1.27;;;;;;;;;;5074548;28;20101;-60
2023/10/04 01:39:58;;;;;;;9.35;1.45;;;;;;;;;;5073846;28;20048;-59
2023/10/04 01:42:25;;;;;;;11.73;1.10;;;;;;;;;;5063197;28;20051;-60
2023/10/04 01:44:52;;;;;;;8.57;1.42;;;;;;;;;;5078306;28;20051;-60
2023/10/04 01:47:19;;;;;;;16.15;1.40;;;;;;;;;;5063896;28;20048;-60
2023/10/04 01:49:46;;;;;;;11.00;1.20;;;;;;;;;;5078544;28;20044;-60
2023/10/04 01:52:12;;;;;;;8.93;1.00;;;;;;;;;;5079973;28;20606;-60
2023/10/04 01:54:38;;;;;;;7.82;1.38;;;;;;;;;;5082476;28;20048;-59
2023/10/04 01:57:05;;;;;;;11.10;1.33;;;;;;;;;;5081298;28;20089;-60
2023/10/04 01:59:31;;;;;;;10.75;1.52;;;;;;;;;;5079528;28;20052;-59
2023/10/04 02:01:57;;;;;;;10.38;2.22;;;;;;;;;;5074505;28;20101;-59
2023/10/04 02:04:23;;;;;;;12.85;1.65;;;;;;;;;;5065531;28;20799;-59
2023/10/04 02:06:49;;;;;;;9.75;1.00;;;;;;;;;;5068152;28;20080;-59
2023/10/04 02:09:16;;;;;;;7.65;1.55;;;;;;;;;;5077867;28;20109;-60
2023/10/04 02:11:43;;;;;;;10.35;1.15;;;;;;;;;;5071185;28;20047;-60
2023/10/04 02:14:11;;;;;;;10.32;1.30;;;;;;;;;;5084472;28;20048;-59
2023/10/04 02:16:37;;;;;;;7.43;2.00;;;;;;;;;;5083407;28;20044;-59
2023/10/04 02:19:03;;;;;;;9.57;1.25;;;;;;;;;;5079311;28;20567;-59
2023/10/04 02:21:29;;;;;;;9.35;1.13;;;;;;;;;;5074624;28;20093;-59
2023/10/04 02:23:56;;;;;;;5.13;1.33;;;;;;;;;;5082487;28;20044;-59
2023/10/04 02:26:22;;;;;;;20.60;1.95;;;;;;;;;;5082578;28;20036;-60
2023/10/04 02:28:51;;;;;;;8.30;1.90;;;;;;;;;;5078726;28;20067;-59
2023/10/04 02:31:19;;;;;;;10.35;1.25;;;;;;;;;;5079854;28;20044;-59
2023/10/04 02:33:46;;;;;;;;;;;;;;;;;;5075689;28;20603;-60
2023/10/04 02:36:12;;;;;;;10.73;1.52;;;;;;;;;;5072805;28;19977;-59
2023/10/04 02:38:38;;;;;;;9.10;1.90;;;;;;;;;;5076471;28;20077;-59
2023/10/04 02:41:05;;;;;;;13.60;1.80;;;;;;;;;;5080446;28;20041;-60
2023/10/04 02:43:32;;;;;;;5.97;1.38;;;;;;;;;;5081659;28;20055;-60
2023/10/04 02:45:59;;;;;;;11.20;1.58;;;;;;;;;;5080057;28;20052;-59
2023/10/04 02:48:25;;;;;;;7.70;1.00;;;;;;;;;;5061792;28;20056;-59
2023/10/04 02:50:51;;;;;;;6.38;1.30;;;;;;;;;;5072731;28;20053;-59
2023/10/04 02:53:19;;;;;;;9.65;1.50;;;;;;;;;;5076222;28;20059;-59
2023/10/04 02:55:46;;;;;;;7.78;1.08;;;;;;;;;;5078127;28;20040;-60
2023/10/04 02:58:13;;;;;;;15.57;1.65;;;;;;;;;;5073623;28;20105;-59
2023/10/04 03:00:44;;;;;;;9.73;1.38;;;;;;;;;;5072401;28;20040;-59
2023/10/04 03:03:14;;;;;;;11.23;1.88;;;;;;;;;;5073639;28;20127;-59
2023/10/04 03:05:41;;;;;;;12.25;1.33;;;;;;;;;;5079585;28;20048;-59
2023/10/04 03:08:08;;;;;;;7.78;1.83;;;;;;;;;;5070575;28;20127;-59
2023/10/04 03:10:35;;;;;;;7.20;1.60;;;;;;;;;;5066087;28;20043;-59
2023/10/04 03:13:01;;;;;;;8.90;1.42;;;;;;;;;;5082464;28;20305;-59
2023/10/04 03:15:28;;;;;;;7.40;1.00;;;;;;;;;;5081439;28;20934;-59
2023/10/04 03:18:13;;;;;;;7.22;1.33;;;;;;;;;;5083678;28;20083;-60
2023/10/04 03:20:42;;;;;;;11.43;1.77;;;;;;;;;;5081723;28;20083;-59
2023/10/04 03:23:12;;;;;;;6.78;1.42;;;;;;;;;;5080348;28;20061;-59
2023/10/04 03:25:38;;;;;;;8.98;1.77;;;;;;;;;;5079028;28;20044;-59
2023/10/04 03:28:05;;;;;;;7.70;1.33;;;;;;;;;;5081304;28;20044;-59
2023/10/04 03:30:32;;;;;;;6.93;1.30;;;;;;;;;;5073627;28;20043;-59
2023/10/04 03:32:58;;;;;;;11.90;1.50;;;;;;;;;;5080343;28;20051;-59
2023/10/04 03:35:26;;;;;;;7.70;1.50;;;;;;;;;;5084947;28;20521;-59
2023/10/04 03:37:58;;;;;;;11.27;1.58;;;;;;;;;;5070818;28;20405;-59
2023/10/04 03:40:34;;;;;;;9.30;1.48;;;;;;;;;;5077312;28;20082;-59
2023/10/04 03:43:00;;;;;;;9.65;1.20;;;;;;;;;;5066953;28;20110;-59
2023/10/04 03:45:26;;;;;;;15.77;1.90;;;;;;;;;;5077791;28;20048;-59
2023/10/04 03:47:52;;;;;;;12.13;2.03;;;;;;;;;;5065045;28;20082;-59
2023/10/04 03:50:19;;;;;;;13.82;2.38;;;;;;;;;;5062712;28;20520;-59
2023/10/04 03:52:47;;;;;;;12.18;1.70;;;;;;;;;;5080603;28;20039;-59
2023/10/04 03:55:14;;;;;;;8.50;2.17;;;;;;;;;;5083396;28;20040;-59
2023/10/04 03:57:44;;;;;;;9.82;1.52;;;;;;;;;;5080446;28;20036;-59
2023/10/04 04:00:16;;;;;;;10.00;1.45;;;;;;;;;;5079228;28;20131;-59
2023/10/04 04:02:43;;;;;;;11.60;1.77;;;;;;;;;;5075759;28;20040;-59
2023/10/04 04:05:14;;;;;;;8.50;1.73;;;;;;;;;;5082299;28;20067;-59
2023/10/04 04:07:40;;;;;;;8.13;1.63;;;;;;;;;;5077268;28;20165;-59
2023/10/04 04:10:07;;;;;;;15.95;1.65;;;;;;;;;;5071931;28;20079;-59
2023/10/04 04:12:34;;;;;;;14.02;1.77;;;;;;;;;;5072502;28;20051;-59
2023/10/04 04:15:01;;;;;;;13.63;1.98;;;;;;;;;;5081342;28;20060;-59
2023/10/04 04:17:27;;;;;;;11.30;1.75;;;;;;;;;;5080581;28;20048;-59
2023/10/04 04:19:53;;;;;;;9.50;1.85;;;;;;;;;;5075732;28;20086;-61
2023/10/04 04:22:24;;;;;;;12.85;2.28;;;;;;;;;;5081411;28;20044;-60
2023/10/04 04:24:52;;;;;;;10.40;1.52;;;;;;;;;;5077661;28;20036;-60
2023/10/04 04:27:22;;;;;;;17.98;1.95;;;;;;;;;;5064766;28;20511;-60
2023/10/04 04:29:56;;;;;;;11.07;1.95;;;;;;;;;;5083214;28;20055;-60
2023/10/04 04:32:26;;;;;;;6.53;1.55;;;;;;;;;;5072110;28;20481;-61
2023/10/04 04:34:56;;;;;;;11.90;1.80;;;;;;;;;;5072683;28;20118;-60
2023/10/04 04:37:26;;;;;;;9.45;1.77;;;;;;;;;;5079278;28;20044;-60
2023/10/04 04:39:52;;;;;;;8.38;2.33;;;;;;;;;;5081577;28;20043;-61
2023/10/04 04:42:23;;;;;;;7.60;1.38;;;;;;;;;;5081412;28;20079;-61
2023/10/04 04:44:49;;;;;;;7.22;1.58;;;;;;;;;;5080913;28;20520;-60
2023/10/04 04:47:17;;;;;;;7.35;1.60;;;;;;;;;;5077076;28;20032;-60
2023/10/04 04:49:43;;;;;;;9.30;1.65;;;;;;;;;;5079957;28;20044;-61
2023/10/04 04:52:09;;;;;;;11.55;1.95;;;;;;;;;;5067269;28;20075;-60
2023/10/04 04:54:36;;;;;;;13.10;1.70;;;;;;;;;;5068489;28;20074;-62
2023/10/04 04:57:05;;;;;;;8.52;1.70;;;;;;;;;;5063891;28;20119;-59
2023/10/04 04:59:31;;;;;;;9.88;2.00;;;;;;;;;;5076069;28;20052;-60
2023/10/04 05:01:57;;;;;;;11.82;1.88;;;;;;;;;;5072126;28;20105;-60
2023/10/04 05:04:23;;;;;;;7.30;1.70;;;;;;;;;;5072473;28;20049;-60
2023/10/04 05:06:51;;;;;;;11.32;1.80;;;;;;;;;;5070969;28;20534;-60
2023/10/04 05:09:17;;;;;;;11.25;2.00;;;;;;;;;;5071088;28;20091;-59
2023/10/04 05:11:45;;;;;;;6.50;1.58;;;;;;;;;;5067477;28;20081;-60
2023/10/04 05:14:11;;;;;;;10.17;1.70;;;;;;;;;;5081908;28;20051;-59
2023/10/04 05:16:37;;;;;;;9.20;1.50;;;;;;;;;;5078601;28;20333;-59
2023/10/04 05:19:04;;;;;;;16.70;2.10;;;;;;;;;;5080060;28;20036;-59
2023/10/04 05:21:30;;;;;;;9.07;1.77;;;;;;;;;;5078612;28;20074;-59
2023/10/04 05:23:57;;;;;;;8.27;1.88;;;;;;;;;;5079918;28;20048;-60
2023/10/04 05:26:23;;;;;;;11.68;2.03;;;;;;;;;;5080219;28;20055;-60
2023/10/04 05:28:49;;;;;;;9.48;1.90;;;;;;;;;;5062630;28;20048;-59
2023/10/04 05:31:15;;;;;;;16.15;2.20;;;;;;;;;;5083630;28;20047;-60
2023/10/04 05:33:41;;;;;;;9.10;2.20;;;;;;;;;;5079713;28;20044;-60
2023/10/04 05:36:07;;;;;;;10.85;1.95;;;;;;;;;;5079844;28;20118;-60
2023/10/04 05:38:34;;;;;;;8.45;1.70;;;;;;;;;;5074497;28;20040;-60
2023/10/04 05:41:02;;;;;;;14.90;2.00;;;;;;;;;;5077617;28;20069;-60
2023/10/04 05:43:34;;;;;;;10.60;2.30;;;;;;;;;;5085419;28;20037;-61
2023/10/04 05:46:00;;;;;;;11.25;2.47;;;;;;;;;;5083343;28;20374;-61
2023/10/04 05:48:26;;;;;;;17.80;2.30;;;;;;;;;;5082346;28;20047;-60
2023/10/04 05:50:57;;;;;;;9.50;1.80;;;;;;;;;;5076226;28;20048;-60
2023/10/04 05:53:25;;;;;;;14.13;2.50;;;;;;;;;;5074934;28;20157;-60
2023/10/04 05:55:51;;;;;;;7.50;1.98;;;;;;;;;;5084059;28;20052;-62
2023/10/04 05:58:18;;;;;;;10.25;2.35;;;;;;;;;;5078166;28;20037;-62
2023/10/04 06:00:52;;;;;;;12.55;2.40;;;;;;;;;;5066325;28;20048;-62
2023/10/04 06:03:18;;;;;;;11.63;2.33;;;;;;;;;;5071510;28;20075;-59
2023/10/04 06:05:44;;;;;;;10.10;2.08;;;;;;;;;;5069680;28;20063;-60
2023/10/04 06:08:15;;;;;;;14.70;2.35;;;;;;;;;;5097725;28;20040;-60
2023/10/04 06:10:45;;;;;;;9.32;1.92;;;;;;;;;;5073976;28;20048;-60
2023/10/04 06:13:11;;;;;;;13.02;2.25;;;;;;;;;;5077639;28;20036;-60
2023/10/04 06:15:44;;;;;;;8.98;2.50;;;;;;;;;;5082955;28;20063;-60
2023/10/04 06:18:14;;;;;;;10.48;2.05;;;;;;;;;;5080165;28;20051;-60
2023/10/04 06:20:40;;;;;;;15.07;3.03;;;;;;;;;;5080129;28;20094;-60
2023/10/04 06:23:10;;;;;;;12.43;2.47;;;;;;;;;;5075913;28;20116;-60
2023/10/04 06:25:41;;;;;;;11.70;2.63;;;;;;;;;;5083683;28;20040;-59
2023/10/04 06:28:07;;;;;;;10.00;2.38;;;;;;;;;;5066005;28;20066;-60
2023/10/04 06:30:34;;;;;;;11.32;2.28;;;;;;;;;;5076289;28;20044;-60
2023/10/04 06:33:04;;;;;;;7.70;1.95;;;;;;;;;;5073803;28;20047;-60
2023/10/04 06:35:32;;;;;;;11.15;2.13;;;;;;;;;;5082189;28;20059;-60
2023/10/04 06:38:02;;;;;;;8.48;2.25;;;;;;;;;;5071807;28;20735;-60
2023/10/04 06:40:31;;;;;;;11.07;2.17;;;;;;;;;;5071386;28;20049;-61
2023/10/04 06:42:58;;;;;;;9.05;2.10;;;;;;;;;;5058253;28;20090;-61
2023/10/04 06:45:24;;;;;;;6.82;1.90;;;;;;;;;;5064283;28;20557;-60
2023/10/04 06:47:51;;;;;;;8.70;1.83;;;;;;;;;;5099087;28;20063;-60
2023/10/04 06:50:18;;;;;;;8.00;2.30;;;;;;;;;;5081215;28;20048;-61
2023/10/04 06:52:48;;;;;;;9.45;2.22;;;;;;;;;;5074727;28;20029;-60
2023/10/04 06:55:15;;;;;;;14.57;2.08;;;;;;;;;;5075045;28;20036;-60
2023/10/04 06:57:42;;;;;;;11.18;2.38;;;;;;;;;;5081806;28;20036;-60
2023/10/04 07:00:15;;;;;;;13.55;2.65;;;;;;;;;;5082271;28;20048;-59
2023/10/04 07:02:45;;;;;;;12.68;2.30;;;;;;;;;;5079239;28;20105;-60
2023/10/04 07:05:16;;;;;;;9.20;2.25;;;;;;;;;;5083162;28;20537;-60
2023/10/04 07:07:53;;;;;;;8.57;1.98;;;;;;;;;;5077832;28;20515;-60
2023/10/04 07:10:20;;;;;;;10.40;2.25;;;;;;;;;;5071908;28;20055;-60
2023/10/04 07:12:51;;;;;;;16.33;2.97;;;;;;;;;;5075657;28;20044;-60
2023/10/04 07:15:18;;;;;;;9.38;2.55;;;;;;;;;;5082511;28;20048;-60
2023/10/04 07:17:44;;;;;;;10.80;2.65;;;;;;;;;;5081675;28;20084;-60
2023/10/04 07:20:15;;;;;;;14.05;2.22;;;;;;;;;;5077676;28;20122;-60
2023/10/04 07:22:42;;;;;;;15.40;2.50;;;;;;;;;;5076510;28;20511;-60
2023/10/04 07:25:09;;;;;;;9.88;2.28;;;;;;;;;;5077553;28;20055;-60
2023/10/04 07:27:35;;;;;;;13.68;3.38;;;;;;;;;;5083233;28;20036;-60
2023/10/04 07:30:02;;;;;;;15.20;2.42;;;;;;;;;;5081566;28;20481;-60
2023/10/04 07:32:29;;;;;;;8.10;2.30;;;;;;;;;;5082886;28;20070;-60
2023/10/04 07:34:55;;;;;;;15.00;2.55;;;;;;;;;;5078343;28;20109;-60
2023/10/04 07:37:21;;;;;;;18.40;4.20;;;;;;;;;;5075490;28;20060;-60
2023/10/04 07:39:47;;;;;;;15.77;2.92;;;;;;;;;;5075951;28;20827;-60
2023/10/04 07:42:14;;;;;;;10.05;2.30;;;;;;;;;;5086183;28;20135;-60
2023/10/04 07:44:40;;;;;;;17.60;2.83;;;;;;;;;;5074693;28;20548;-60
2023/10/04 07:47:06;;;;;;;12.23;2.97;;;;;;;;;;5075848;28;20044;-60
2023/10/04 07:49:32;;;;;;;12.63;2.25;;;;;;;;;;5080615;28;20052;-60
2023/10/04 07:51:59;;;;;;;9.38;2.78;;;;;;;;;;5074484;28;20040;-59
2023/10/04 07:54:25;;;;;;;9.68;2.20;;;;;;;;;;5071670;28;20095;-60
2023/10/04 07:56:51;;;;;;;13.98;3.05;;;;;;;;;;5075547;28;20067;-60
2023/10/04 07:59:20;;;;;;;15.85;3.03;;;;;;;;;;5077681;28;20040;-59
2023/10/04 08:01:46;;;;;;;17.52;2.75;;;;;;;;;;5071423;28;20044;-60
2023/10/04 08:04:12;;;;;;;15.90;2.60;;;;;;;;;;5077398;28;20293;-60
2023/10/04 08:06:39;;;;;;;10.73;2.88;;;;;;;;;;5082540;28;20127;-60
2023/10/04 08:09:05;;;;;;;15.55;3.05;;;;;;;;;;5073833;28;20044;-60
2023/10/04 08:11:33;;;;;;;6.88;2.15;;;;;;;;;;5067672;28;20036;-60
2023/10/04 08:13:59;;;;;;;13.03;2.33;;;;;;;;;;5081621;28;20059;-60
2023/10/04 08:16:27;;;;;;;13.68;2.40;;;;;;;;;;5062741;28;20504;-60
2023/10/04 08:18:55;;;;;;;11.43;2.97;;;;;;;;;;5080027;28;20511;-59
2023/10/04 08:21:22;;;;;;;;;;;;;;;;;;5062721;28;20052;-60
2023/10/04 08:23:49;;;;;;;13.00;2.58;;;;;;;;;;5075230;28;19920;-60
2023/10/04 08:26:15;;;;;;;11.45;2.75;;;;;;;;;;5081263;28;20177;-59
2023/10/04 08:28:42;;;;;;;12.02;2.50;;;;;;;;;;5076535;28;20070;-60
2023/10/04 08:31:13;;;;;;;14.55;2.72;;;;;;;;;;5076146;28;20478;-60
2023/10/04 08:33:39;;;;;;;14.35;2.35;;;;;;;;;;5082221;28;20494;-61
2023/10/04 08:36:10;;;;;;;17.05;2.92;;;;;;;;;;5072784;28;20098;-61
2023/10/04 08:38:37;;;;;;;9.70;2.65;;;;;;;;;;5074865;28;20041;-60
2023/10/04 08:41:04;;;;;;;12.00;2.45;;;;;;;;;;5080619;28;20105;-60
2023/10/04 08:43:33;;;;;;;11.88;2.90;;;;;;;;;;5066487;28;20067;-60
2023/10/04 08:46:00;;;;;;;12.52;3.08;;;;;;;;;;5067122;28;20127;-60
2023/10/04 08:48:26;;;;;;;11.10;2.70;;;;;;;;;;5063918;28;20044;-60
2023/10/04 08:51:13;;;;;;;10.90;2.38;;;;;;;;;;5064579;28;20052;-60
2023/10/04 08:53:42;;;;;;;15.70;2.85;;;;;;;;;;5081623;28;20105;-60
2023/10/04 08:56:13;;;;;;;11.45;2.78;;;;;;;;;;5081366;28;20039;-60
2023/10/04 08:58:43;;;;;;;15.85;2.50;;;;;;;;;;5084727;28;20036;-60
2023/10/04 09:01:11;;;;;;;16.70;2.97;;;;;;;;;;5080117;28;20101;-60
2023/10/04 09:03:38;;;;;;;14.38;2.72;;;;;;;;;;5085879;28;20040;-61
2023/10/04 09:06:05;;;;;;;10.93;3.05;;;;;;;;;;5076161;28;20057;-60
2023/10/04 09:08:31;;;;;;;9.95;3.05;;;;;;;;;;5080720;28;20050;-60
2023/10/04 09:10:58;;;;;;;9.95;2.50;;;;;;;;;;5070592;28;20106;-60
2023/10/04 09:13:24;;;;;;;10.38;2.40;;;;;;;;;;5065709;28;20050;-60
2023/10/04 09:15:51;;;;;;;12.75;3.05;;;;;;;;;;5085962;28;20067;-60
2023/10/04 09:18:30;;;;;;;15.50;2.75;;;;;;;;;;5083341;28;20099;-60
2023/10/04 09:20:57;;;;;;;14.68;3.70;;;;;;;;;;5081694;28;20060;-60
2023/10/04 09:23:23;;;;;;;14.18;2.78;;;;;;;;;;5074612;28;20048;-61
2023/10/04 09:25:54;;;;;;;14.52;3.22;;;;;;;;;;5079800;28;20074;-60
2023/10/04 09:28:20;;;;;;;9.02;2.70;;;;;;;;;;5072705;28;20049;-60
2023/10/04 09:30:46;;;;;;;20.25;2.75;;;;;;;;;;5076535;28;20044;-60
2023/10/04 09:33:28;;;;;;;15.57;2.60;;;;;;;;;;5084760;28;20182;-60
2023/10/04 09:35:55;;;;;;;17.02;3.00;;;;;;;;;;5071455;28;20063;-60
2023/10/04 09:38:22;;;;;;;14.30;2.70;;;;;;;;;;5068218;28;20047;-60
2023/10/04 09:40:55;;;;;;;11.40;2.50;;;;;;;;;;5067018;28;20078;-60
2023/10/04 09:43:40;;;;;;;10.85;2.65;;;;;;;;;;5065563;28;20036;-60
2023/10/04 09:46:09;;;;;;;14.73;2.78;;;;;;;;;;5083545;28;20512;-60
2023/10/04 09:48:37;;;;;;;10.30;2.75;;;;;;;;;;5082875;28;20048;-60
2023/10/04 09:51:07;;;;;;;12.35;3.38;;;;;;;;;;5080144;28;20124;-61
2023/10/04 09:53:36;;;;;;;12.82;2.72;;;;;;;;;;5081352;28;20052;-60
2023/10/04 09:56:03;;;;;;;15.18;2.78;;;;;;;;;;5079028;28;20118;-60
2023/10/04 09:58:32;;;;;;;9.18;2.55;;;;;;;;;;5081105;28;20108;-60
2023/10/04 10:01:04;;;;;;;13.23;2.40;;;;;;;;;;5076177;28;20133;-60
2023/10/04 10:03:33;;;;;;;9.77;2.67;;;;;;;;;;5074049;28;20044;-60
2023/10/04 10:06:00;;;;;;;11.75;2.70;;;;;;;;;;5075726;28;20063;-60
2023/10/04 10:08:30;;;;;;;13.82;2.95;;;;;;;;;;5080840;28;20040;-60
2023/10/04 10:10:57;;;;;;;8.25;2.65;;;;;;;;;;5069458;28;20044;-59
2023/10/04 10:13:25;;;;;;;17.73;3.15;;;;;;;;;;5079587;28;20128;-60
2023/10/04 10:15:53;;;;;;;14.65;3.00;;;;;;;;;;5083413;28;20043;-60
2023/10/04 10:18:19;;;;;;;16.90;3.00;;;;;;;;;;5078283;28;20048;-60
2023/10/04 10:20:46;;;;;;;10.07;2.45;;;;;;;;;;5080105;28;20040;-60
2023/10/04 10:23:13;;;;;;;15.50;3.25;;;;;;;;;;5048875;28;20082;-60
2023/10/04 10:25:40;;;;;;;12.60;2.97;;;;;;;;;;5079581;28;20051;-60
2023/10/04 10:28:19;;;;;;;10.80;3.28;;;;;;;;;;5084560;28;20135;-59
2023/10/04 10:30:45;;;;;;;10.25;3.00;;;;;;;;;;5063354;28;20455;-59
2023/10/04 10:33:12;;;;;;;7.80;2.47;;;;;;;;;;5080385;28;20093;-60
2023/10/04 10:36:05;;;;;;;16.58;2.80;;;;;;;;;;5076456;28;20036;-60
2023/10/04 10:38:44;;;;;;;14.23;3.13;;;;;;;;;;5079502;28;20055;-59
2023/10/04 10:41:29;;;;;;;15.68;2.75;;;;;;;;;;5083774;28;20040;-60
2023/10/04 10:44:13;;;;;;;10.85;2.63;;;;;;;;;;5079567;28;20028;-60
2023/10/04 10:46:56;;;;;;;15.80;3.42;;;;;;;;;;5081129;28;20127;-60
2023/10/04 10:49:48;;;;;;;10.82;2.97;;;;;;;;;;5076940;28;20040;-59
2023/10/04 10:52:24;;;;;;;11.18;2.85;;;;;;;;;;5070263;28;20053;-60
2023/10/04 10:54:51;;;;;;;11.77;3.13;;;;;;;;;;5070246;28;20040;-60
2023/10/04 10:57:18;;;;;;;14.00;2.58;;;;;;;;;;5069810;28;20401;-60
2023/10/04 10:59:46;;;;;;;16.13;3.42;;;;;;;;;;5073026;28;20056;-60
2023/10/04 11:02:12;;;;;;;12.15;3.15;;;;;;;;;;5066827;28;20041;-61
2023/10/04 11:04:38;;;;;;;15.63;2.97;;;;;;;;;;5067510;28;20051;-60
2023/10/04 11:07:11;;;;;;;9.60;2.75;;;;;;;;;;5063370;28;20190;-60
2023/10/04 11:09:42;;;;;;;13.02;3.13;;;;;;;;;;5065977;28;20127;-60
2023/10/04 11:12:09;;;;;;;19.15;2.85;;;;;;;;;;5063419;28;20055;-59
2023/10/04 11:14:36;;;;;;;16.58;2.85;;;;;;;;;;5080409;28;20047;-60
2023/10/04 11:17:03;;;;;;;9.73;2.60;;;;;;;;;;5076684;28;20044;-60
2023/10/04 11:19:30;;;;;;;13.23;3.03;;;;;;;;;;5077114;28;20051;-60
2023/10/04 11:21:57;;;;;;;9.63;2.50;;;;;;;;;;5054279;28;20365;-60
2023/10/04 11:24:23;;;;;;;13.20;3.78;;;;;;;;;;5075376;28;20059;-60
2023/10/04 11:26:50;;;;;;;13.63;3.05;;;;;;;;;;5068408;28;20094;-59
2023/10/04 11:29:16;;;;;;;11.70;3.75;;;;;;;;;;5072731;28;20055;-60
2023/10/04 11:31:42;;;;;;;14.63;3.63;;;;;;;;;;5081513;28;20131;-60
2023/10/04 11:34:10;;;;;;;10.38;2.60;;;;;;;;;;5069541;28;20048;-60
2023/10/04 11:36:36;;;;;;;12.02;2.72;;;;;;;;;;5073096;28;20043;-59
2023/10/04 11:39:10;;;;;;;9.60;2.20;;;;;;;;;;5076056;28;20486;-59
2023/10/04 11:41:39;;;;;;;9.02;2.50;;;;;;;;;;5071136;28;20079;-59
2023/10/04 11:44:06;;;;;;;13.20;2.83;;;;;;;;;;5067916;28;20106;-60
2023/10/04 11:46:55;;;;;;;17.05;3.63;;;;;;;;;;5072605;28;20098;-59
2023/10/04 11:49:21;;;;;;;;;;;;;;;;;;5073382;28;20093;-60
2023/10/04 11:51:50;;;;;;;10.57;2.38;;;;;;;;;;5073202;28;20241;-60
2023/10/04 11:54:16;;;;;;;15.45;2.80;;;;;;;;;;5071646;28;20052;-60
2023/10/04 11:56:42;;;;;;;12.80;2.88;;;;;;;;;;5079997;28;20047;-60
2023/10/04 11:59:08;;;;;;;12.57;2.92;;;;;;;;;;5067572;28;20045;-60
2023/10/04 12:01:45;;;;;;;17.38;2.90;;;;;;;;;;5077042;28;20099;-60
2023/10/04 12:04:12;;;;;;;9.75;2.65;;;;;;;;;;5069635;28;20051;-60
2023/10/04 12:06:39;;;;;;;12.02;2.90;;;;;;;;;;5067249;28;20059;-60
2023/10/04 12:09:06;;;;;;;12.45;2.58;;;;;;;;;;5066305;28;20052;-60
2023/10/04 12:11:36;;;;;;;15.43;2.90;;;;;;;;;;5065360;28;20081;-60
2023/10/04 12:14:04;;;;;;;14.07;3.75;;;;;;;;;;5079722;28;20052;-60
2023/10/04 12:16:32;;;;;;;17.42;3.20;;;;;;;;;;5061183;28;20048;-60
2023/10/04 12:18:59;;;;;;;16.52;3.42;;;;;;;;;;5079235;28;20052;-59
2023/10/04 12:21:25;;;;;;;11.85;2.85;;;;;;;;;;5076326;28;20684;-60
2023/10/04 12:23:51;;;;;;;11.55;3.03;;;;;;;;;;5076016;28;20040;-60
2023/10/04 12:26:20;;;;;;;8.98;2.78;;;;;;;;;;5071081;28;20044;-61
2023/10/04 12:28:47;;;;;;;16.63;3.38;;;;;;;;;;5075103;28;20048;-61
2023/10/04 12:31:13;;;;;;;10.82;2.97;;;;;;;;;;5057289;28;20036;-61
2023/10/04 12:33:40;;;;;;;11.88;2.92;;;;;;;;;;5074943;28;20080;-64
2023/10/04 12:36:06;;;;;;;12.55;3.13;;;;;;;;;;5076816;28;20135;-61
2023/10/04 12:38:32;;;;;;;20.20;2.92;;;;;;;;;;5070583;28;20040;-61
2023/10/04 12:40:59;;;;;;;13.40;2.60;;;;;;;;;;5076020;28;20192;-59
2023/10/04 12:43:25;;;;;;;12.50;2.85;;;;;;;;;;5074849;28;20060;-59
2023/10/04 12:45:53;;;;;;;13.38;3.30;;;;;;;;;;5072425;28;20084;-60
2023/10/04 12:48:20;;;;;;;13.98;2.75;;;;;;;;;;5075174;28;20044;-60
2023/10/04 12:50:46;;;;;;;17.60;3.35;;;;;;;;;;5072901;28;20079;-64
2023/10/04 12:53:16;;;;;;;13.13;3.17;;;;;;;;;;5075375;28;20517;-61
2023/10/04 12:55:44;;;;;;;14.90;3.30;;;;;;;;;;5067168;28;20882;-61
2023/10/04 12:58:10;;;;;;;10.20;2.22;;;;;;;;;;5052403;28;20056;-60
2023/10/04 13:00:36;;;;;;;11.40;2.67;;;;;;;;;;5074197;28;20040;-60
2023/10/04 13:03:03;;;;;;;9.63;2.55;;;;;;;;;;5057970;28;20055;-60
2023/10/04 13:05:30;;;;;;;13.60;2.58;;;;;;;;;;5074702;28;20052;-60
2023/10/04 13:07:56;;;;;;;12.30;2.63;;;;;;;;;;5078163;28;20267;-60
2023/10/04 13:10:23;;;;;;;16.55;3.05;;;;;;;;;;5056457;28;20131;-62
2023/10/04 13:12:49;;;;;;;9.20;2.58;;;;;;;;;;5076783;28;20040;-60
2023/10/04 13:15:16;;;;;;;11.30;2.45;;;;;;;;;;5078081;28;20048;-61
2023/10/04 13:17:43;;;;;;;17.02;2.63;;;;;;;;;;5058612;28;20067;-60
2023/10/04 13:20:22;;;;;;;13.80;2.83;;;;;;;;;;5076120;28;20109;-62
2023/10/04 13:22:49;;;;;;;13.43;3.60;;;;;;;;;;5073089;28;20063;-61
2023/10/04 13:25:15;;;;;;;16.20;3.00;;;;;;;;;;5075705;28;20051;-61
2023/10/04 13:27:41;;;;;;;13.57;3.25;;;;;;;;;;5075110;28;20039;-63
2023/10/04 13:30:08;;;;;;;10.50;2.90;;;;;;;;;;5079189;28;20055;-61
2023/10/04 13:32:36;;;;;;;12.73;3.03;;;;;;;;;;5075845;28;20051;-61
2023/10/04 13:35:02;;;;;;;14.27;3.00;;;;;;;;;;5056024;28;20180;-60
2023/10/04 13:37:28;;;;;;;7.05;2.42;;;;;;;;;;5075082;28;20078;-61
2023/10/04 13:39:55;;;;;;;15.60;3.08;;;;;;;;;;5076402;28;20114;-62
2023/10/04 13:42:22;;;;;;;8.90;2.13;;;;;;;;;;5076365;28;20043;-61
2023/10/04 13:44:48;;;;;;;10.10;2.38;;;;;;;;;;5082366;28;20079;-60
2023/10/04 13:47:18;;;;;;;12.05;2.92;;;;;;;;;;5080607;28;20040;-63
2023/10/04 13:49:44;;;;;;;12.85;2.53;;;;;;;;;;5075976;28;20055;-61
2023/10/04 13:52:10;;;;;;;11.95;2.83;;;;;;;;;;5080183;28;20458;-62
2023/10/04 13:54:40;;;;;;;10.68;2.53;;;;;;;;;;5062811;28;20188;-61
2023/10/04 13:57:06;;;;;;;11.93;2.92;;;;;;;;;;5079014;28;20052;-59
2023/10/04 13:59:34;;;;;;;12.32;2.70;;;;;;;;;;5061595;28;20079;-59
2023/10/04 14:02:01;;;;;;;11.02;2.58;;;;;;;;;;5078605;28;20789;-59
2023/10/04 14:04:28;;;;;;;18.48;3.15;;;;;;;;;;5062301;28;20648;-59
2023/10/04 14:06:54;;;;;;;12.93;2.40;;;;;;;;;;5078543;28;20063;-60
2023/10/04 14:09:22;;;;;;;8.00;2.13;;;;;;;;;;5082963;28;20043;-59
2023/10/04 14:11:49;;;;;;;8.80;2.38;;;;;;;;;;5075596;28;20048;-58
2023/10/04 14:14:15;;;;;;;13.68;2.63;;;;;;;;;;5077485;28;20102;-59
2023/10/04 14:16:42;;;;;;;15.77;3.08;;;;;;;;;;5081128;28;20040;-61
2023/10/04 14:19:09;;;;;;;11.18;2.60;;;;;;;;;;5081181;28;20035;-60
2023/10/04 14:21:35;;;;;;;14.07;3.35;;;;;;;;;;5078367;28;20082;-60
2023/10/04 14:24:01;;;;;;;9.18;2.20;;;;;;;;;;5061035;28;20051;-60
2023/10/04 14:26:28;;;;;;;10.23;2.55;;;;;;;;;;5071718;28;20040;-59
2023/10/04 14:28:54;;;;;;;8.80;2.65;;;;;;;;;;5067385;28;20091;-61
2023/10/04 14:31:26;;;;;;;10.85;2.55;;;;;;;;;;5073088;28;20535;-60
2023/10/04 14:33:52;;;;;;;11.35;2.55;;;;;;;;;;5080991;28;20694;-58
2023/10/04 14:36:18;;;;;;;12.13;2.45;;;;;;;;;;5080156;28;20596;-58
2023/10/04 14:38:44;;;;;;;10.32;2.15;;;;;;;;;;5078625;28;20123;-58
2023/10/04 14:41:10;;;;;;;13.20;3.22;;;;;;;;;;5074192;28;20044;-59